sensor_id;sensor_type;location;lat;lon;timestamp;P1;durP1;ratioP1;P2;durP2;ratioP2
21890;SDS011;11110;52.386;16.940;2023-02-22T00:00:58;81.83;;;58.10;;
21890;SDS011;11110;52.386;16.940;2023-02-22T00:03:33;82.13;;;56.17;;
21890;SDS011;11110;52.386;16.940;2023-02-22T00:06:02;98.47;;;58.87;;
21890;SDS011;11110;52.386;16.940;2023-02-22T00:08:32;104.37;;;61.43;;
21890;SDS011;11110;52.386;16.940;2023-02-22T00:11:02;102.47;;;62.67;;
21890;SDS011;11110;52.386;16.940;2023-02-22T00:13:35;104.47;;;65.07;;
21890;SDS011;11110;52.386;16.940;2023-02-22T00:16:05;111.10;;;66.47;;
21890;SDS011;11110;52.386;16.940;2023-02-22T00:18:34;116.17;;;64.83;;
21890;SDS011;11110;52.386;16.940;2023-02-22T00:21:03;92.03;;;61.13;;
21890;SDS011;11110;52.386;16.940;2023-02-22T00:23:38;96.70;;;61.13;;
21890;SDS011;11110;52.386;16.940;2023-02-22T00:26:08;83.67;;;58.33;;
21890;SDS011;11110;52.386;16.940;2023-02-22T00:28:40;87.03;;;59.50;;
21890;SDS011;11110;52.386;16.940;2023-02-22T00:31:08;95.57;;;62.13;;
21890;SDS011;11110;52.386;16.940;2023-02-22T00:33:37;113.77;;;66.77;;
21890;SDS011;11110;52.386;16.940;2023-02-22T00:36:06;104.03;;;66.43;;
21890;SDS011;11110;52.386;16.940;2023-02-22T00:38:36;113.07;;;64.80;;
21890;SDS011;11110;52.386;16.940;2023-02-22T00:41:05;107.53;;;63.20;;
21890;SDS011;11110;52.386;16.940;2023-02-22T00:43:34;101.77;;;63.70;;
21890;SDS011;11110;52.386;16.940;2023-02-22T00:46:04;100.47;;;62.57;;
21890;SDS011;11110;52.386;16.940;2023-02-22T00:48:33;97.80;;;62.13;;
21890;SDS011;11110;52.386;16.940;2023-02-22T00:51:01;101.10;;;62.13;;
21890;SDS011;11110;52.386;16.940;2023-02-22T00:53:30;98.23;;;62.87;;
21890;SDS011;11110;52.386;16.940;2023-02-22T00:55:58;94.63;;;60.60;;
21890;SDS011;11110;52.386;16.940;2023-02-22T00:58:27;91.43;;;62.27;;
21890;SDS011;11110;52.386;16.940;2023-02-22T01:00:56;91.90;;;60.37;;
21890;SDS011;11110;52.386;16.940;2023-02-22T01:03:26;88.67;;;59.93;;
21890;SDS011;11110;52.386;16.940;2023-02-22T01:05:55;91.10;;;60.00;;
21890;SDS011;11110;52.386;16.940;2023-02-22T01:08:24;84.63;;;58.57;;
21890;SDS011;11110;52.386;16.940;2023-02-22T01:10:52;83.30;;;59.57;;
21890;SDS011;11110;52.386;16.940;2023-02-22T01:13:22;88.23;;;59.17;;
21890;SDS011;11110;52.386;16.940;2023-02-22T01:15:51;82.50;;;56.93;;
21890;SDS011;11110;52.386;16.940;2023-02-22T01:18:22;78.13;;;55.77;;
21890;SDS011;11110;52.386;16.940;2023-02-22T01:20:53;81.80;;;57.10;;
21890;SDS011;11110;52.386;16.940;2023-02-22T01:23:22;78.73;;;54.97;;
21890;SDS011;11110;52.386;16.940;2023-02-22T01:25:51;83.07;;;56.40;;
21890;SDS011;11110;52.386;16.940;2023-02-22T01:28:19;93.10;;;59.03;;
21890;SDS011;11110;52.386;16.940;2023-02-22T01:30:49;95.07;;;59.50;;
21890;SDS011;11110;52.386;16.940;2023-02-22T01:33:17;98.93;;;60.73;;
21890;SDS011;11110;52.386;16.940;2023-02-22T01:35:46;79.93;;;56.90;;
21890;SDS011;11110;52.386;16.940;2023-02-22T01:38:18;94.33;;;64.40;;
21890;SDS011;11110;52.386;16.940;2023-02-22T01:40:47;84.77;;;57.73;;
21890;SDS011;11110;52.386;16.940;2023-02-22T01:43:18;93.47;;;59.70;;
21890;SDS011;11110;52.386;16.940;2023-02-22T01:45:53;89.93;;;59.50;;
21890;SDS011;11110;52.386;16.940;2023-02-22T01:48:28;91.93;;;59.27;;
21890;SDS011;11110;52.386;16.940;2023-02-22T01:51:06;103.50;;;59.27;;
21890;SDS011;11110;52.386;16.940;2023-02-22T01:53:41;101.57;;;60.40;;
21890;SDS011;11110;52.386;16.940;2023-02-22T01:56:14;100.40;;;61.73;;
21890;SDS011;11110;52.386;16.940;2023-02-22T01:58:45;107.47;;;65.70;;
21890;SDS011;11110;52.386;16.940;2023-02-22T02:01:17;117.03;;;66.23;;
21890;SDS011;11110;52.386;16.940;2023-02-22T02:03:49;110.13;;;66.63;;
21890;SDS011;11110;52.386;16.940;2023-02-22T02:06:18;106.83;;;62.70;;
21890;SDS011;11110;52.386;16.940;2023-02-22T02:08:51;94.87;;;59.47;;
21890;SDS011;11110;52.386;16.940;2023-02-22T02:11:25;103.73;;;62.77;;
21890;SDS011;11110;52.386;16.940;2023-02-22T02:13:58;110.00;;;63.77;;
21890;SDS011;11110;52.386;16.940;2023-02-22T02:16:30;110.47;;;64.63;;
21890;SDS011;11110;52.386;16.940;2023-02-22T02:19:06;101.67;;;63.83;;
21890;SDS011;11110;52.386;16.940;2023-02-22T02:24:54;88.23;;;59.13;;
21890;SDS011;11110;52.386;16.940;2023-02-22T02:34:17;71.23;;;53.60;;
21890;SDS011;11110;52.386;16.940;2023-02-22T02:36:53;80.33;;;55.03;;
21890;SDS011;11110;52.386;16.940;2023-02-22T02:39:28;73.27;;;53.63;;
21890;SDS011;11110;52.386;16.940;2023-02-22T02:42:00;76.90;;;54.07;;
21890;SDS011;11110;52.386;16.940;2023-02-22T02:44:35;77.30;;;52.53;;
21890;SDS011;11110;52.386;16.940;2023-02-22T02:47:09;77.93;;;56.03;;
21890;SDS011;11110;52.386;16.940;2023-02-22T02:49:45;76.70;;;54.67;;
21890;SDS011;11110;52.386;16.940;2023-02-22T02:52:18;80.97;;;56.37;;
21890;SDS011;11110;52.386;16.940;2023-02-22T02:54:49;92.87;;;57.80;;
21890;SDS011;11110;52.386;16.940;2023-02-22T02:57:19;81.47;;;56.90;;
21890;SDS011;11110;52.386;16.940;2023-02-22T02:59:47;91.40;;;58.73;;
21890;SDS011;11110;52.386;16.940;2023-02-22T03:02:26;93.70;;;59.73;;
21890;SDS011;11110;52.386;16.940;2023-02-22T03:05:10;84.13;;;58.07;;
21890;SDS011;11110;52.386;16.940;2023-02-22T03:07:51;82.20;;;57.27;;
21890;SDS011;11110;52.386;16.940;2023-02-22T03:10:30;82.03;;;59.87;;
21890;SDS011;11110;52.386;16.940;2023-02-22T03:13:13;86.03;;;59.83;;
21890;SDS011;11110;52.386;16.940;2023-02-22T03:15:49;87.57;;;60.60;;
21890;SDS011;11110;52.386;16.940;2023-02-22T03:18:26;87.93;;;59.97;;
21890;SDS011;11110;52.386;16.940;2023-02-22T03:20:59;102.23;;;64.97;;
21890;SDS011;11110;52.386;16.940;2023-02-22T03:23:36;87.10;;;64.97;;
21890;SDS011;11110;52.386;16.940;2023-02-22T03:26:12;92.70;;;68.30;;
21890;SDS011;11110;52.386;16.940;2023-02-22T03:28:46;90.93;;;67.03;;
21890;SDS011;11110;52.386;16.940;2023-02-22T03:31:18;89.33;;;64.80;;
21890;SDS011;11110;52.386;16.940;2023-02-22T03:33:53;79.33;;;59.90;;
21890;SDS011;11110;52.386;16.940;2023-02-22T03:36:27;85.20;;;63.47;;
21890;SDS011;11110;52.386;16.940;2023-02-22T03:39:00;91.00;;;64.73;;
21890;SDS011;11110;52.386;16.940;2023-02-22T03:41:31;90.27;;;64.70;;
21890;SDS011;11110;52.386;16.940;2023-02-22T03:44:05;94.37;;;66.57;;
21890;SDS011;11110;52.386;16.940;2023-02-22T03:46:35;87.50;;;65.20;;
21890;SDS011;11110;52.386;16.940;2023-02-22T03:49:09;92.80;;;67.40;;
21890;SDS011;11110;52.386;16.940;2023-02-22T03:51:41;91.77;;;66.63;;
21890;SDS011;11110;52.386;16.940;2023-02-22T03:54:10;89.13;;;63.90;;
21890;SDS011;11110;52.386;16.940;2023-02-22T03:56:47;92.27;;;63.67;;
21890;SDS011;11110;52.386;16.940;2023-02-22T03:59:21;88.87;;;66.37;;
21890;SDS011;11110;52.386;16.940;2023-02-22T04:01:53;104.80;;;65.13;;
21890;SDS011;11110;52.386;16.940;2023-02-22T04:04:24;91.83;;;63.20;;
21890;SDS011;11110;52.386;16.940;2023-02-22T04:06:53;94.27;;;61.83;;
21890;SDS011;11110;52.386;16.940;2023-02-22T04:09:22;93.37;;;62.73;;
21890;SDS011;11110;52.386;16.940;2023-02-22T04:11:50;89.07;;;63.87;;
21890;SDS011;11110;52.386;16.940;2023-02-22T04:14:19;95.20;;;65.63;;
21890;SDS011;11110;52.386;16.940;2023-02-22T04:16:49;96.93;;;63.30;;
21890;SDS011;11110;52.386;16.940;2023-02-22T04:19:18;103.57;;;64.07;;
21890;SDS011;11110;52.386;16.940;2023-02-22T04:21:49;98.63;;;63.90;;
21890;SDS011;11110;52.386;16.940;2023-02-22T04:24:23;94.63;;;62.80;;
21890;SDS011;11110;52.386;16.940;2023-02-22T04:26:52;100.93;;;63.30;;
21890;SDS011;11110;52.386;16.940;2023-02-22T04:29:23;119.23;;;65.27;;
21890;SDS011;11110;52.386;16.940;2023-02-22T04:31:52;99.70;;;63.30;;
21890;SDS011;11110;52.386;16.940;2023-02-22T04:34:21;94.03;;;62.90;;
21890;SDS011;11110;52.386;16.940;2023-02-22T04:36:51;97.07;;;62.83;;
21890;SDS011;11110;52.386;16.940;2023-02-22T04:39:20;99.47;;;61.93;;
21890;SDS011;11110;52.386;16.940;2023-02-22T04:41:50;94.67;;;61.70;;
21890;SDS011;11110;52.386;16.940;2023-02-22T04:44:19;101.73;;;61.23;;
21890;SDS011;11110;52.386;16.940;2023-02-22T04:46:47;103.73;;;62.87;;
21890;SDS011;11110;52.386;16.940;2023-02-22T04:49:16;101.70;;;62.37;;
21890;SDS011;11110;52.386;16.940;2023-02-22T04:51:46;111.00;;;64.37;;
21890;SDS011;11110;52.386;16.940;2023-02-22T04:54:18;108.90;;;62.87;;
21890;SDS011;11110;52.386;16.940;2023-02-22T04:56:47;106.63;;;63.40;;
21890;SDS011;11110;52.386;16.940;2023-02-22T04:59:15;99.77;;;61.00;;
21890;SDS011;11110;52.386;16.940;2023-02-22T05:01:51;106.50;;;63.67;;
21890;SDS011;11110;52.386;16.940;2023-02-22T05:04:20;97.63;;;62.50;;
21890;SDS011;11110;52.386;16.940;2023-02-22T05:06:49;98.27;;;62.80;;
21890;SDS011;11110;52.386;16.940;2023-02-22T05:09:22;109.97;;;63.67;;
21890;SDS011;11110;52.386;16.940;2023-02-22T05:11:50;106.47;;;63.47;;
21890;SDS011;11110;52.386;16.940;2023-02-22T05:14:19;107.87;;;62.33;;
21890;SDS011;11110;52.386;16.940;2023-02-22T05:16:48;114.90;;;66.40;;
21890;SDS011;11110;52.386;16.940;2023-02-22T05:19:17;103.97;;;65.23;;
21890;SDS011;11110;52.386;16.940;2023-02-22T05:21:45;127.90;;;67.23;;
21890;SDS011;11110;52.386;16.940;2023-02-22T05:24:14;108.03;;;63.97;;
21890;SDS011;11110;52.386;16.940;2023-02-22T05:26:44;115.87;;;65.13;;
21890;SDS011;11110;52.386;16.940;2023-02-22T05:29:13;121.10;;;66.20;;
21890;SDS011;11110;52.386;16.940;2023-02-22T05:31:42;114.17;;;64.17;;
21890;SDS011;11110;52.386;16.940;2023-02-22T05:34:11;116.50;;;63.10;;
21890;SDS011;11110;52.386;16.940;2023-02-22T05:36:40;113.27;;;63.63;;
21890;SDS011;11110;52.386;16.940;2023-02-22T05:39:08;110.00;;;62.63;;
21890;SDS011;11110;52.386;16.940;2023-02-22T05:41:37;118.77;;;63.23;;
21890;SDS011;11110;52.386;16.940;2023-02-22T05:44:08;130.13;;;66.50;;
21890;SDS011;11110;52.386;16.940;2023-02-22T05:46:36;109.37;;;62.10;;
21890;SDS011;11110;52.386;16.940;2023-02-22T05:49:05;117.10;;;63.03;;
21890;SDS011;11110;52.386;16.940;2023-02-22T05:51:34;116.10;;;61.90;;
21890;SDS011;11110;52.386;16.940;2023-02-22T05:54:02;119.53;;;62.73;;
21890;SDS011;11110;52.386;16.940;2023-02-22T05:56:31;124.20;;;63.20;;
21890;SDS011;11110;52.386;16.940;2023-02-22T05:59:00;114.87;;;64.20;;
21890;SDS011;11110;52.386;16.940;2023-02-22T06:01:30;122.40;;;66.80;;
21890;SDS011;11110;52.386;16.940;2023-02-22T06:03:59;112.63;;;63.47;;
21890;SDS011;11110;52.386;16.940;2023-02-22T06:06:27;119.00;;;64.87;;
21890;SDS011;11110;52.386;16.940;2023-02-22T06:08:56;123.23;;;63.03;;
21890;SDS011;11110;52.386;16.940;2023-02-22T06:11:24;123.67;;;64.37;;
21890;SDS011;11110;52.386;16.940;2023-02-22T06:13:53;130.07;;;64.40;;
21890;SDS011;11110;52.386;16.940;2023-02-22T06:16:22;116.07;;;62.27;;
21890;SDS011;11110;52.386;16.940;2023-02-22T06:18:52;122.10;;;66.47;;
21890;SDS011;11110;52.386;16.940;2023-02-22T06:21:20;119.20;;;63.30;;
21890;SDS011;11110;52.386;16.940;2023-02-22T06:23:49;121.90;;;64.90;;
21890;SDS011;11110;52.386;16.940;2023-02-22T06:26:18;117.90;;;62.90;;
21890;SDS011;11110;52.386;16.940;2023-02-22T06:28:46;122.00;;;62.93;;
21890;SDS011;11110;52.386;16.940;2023-02-22T06:31:15;120.63;;;62.73;;
21890;SDS011;11110;52.386;16.940;2023-02-22T06:33:44;125.03;;;63.90;;
21890;SDS011;11110;52.386;16.940;2023-02-22T06:36:14;124.80;;;66.17;;
21890;SDS011;11110;52.386;16.940;2023-02-22T06:38:43;135.07;;;66.20;;
21890;SDS011;11110;52.386;16.940;2023-02-22T06:41:12;120.60;;;63.57;;
21890;SDS011;11110;52.386;16.940;2023-02-22T06:43:42;130.90;;;67.70;;
21890;SDS011;11110;52.386;16.940;2023-02-22T06:46:11;122.37;;;65.23;;
21890;SDS011;11110;52.386;16.940;2023-02-22T06:48:43;124.33;;;65.80;;
21890;SDS011;11110;52.386;16.940;2023-02-22T06:51:11;124.67;;;67.57;;
21890;SDS011;11110;52.386;16.940;2023-02-22T06:53:42;129.10;;;69.23;;
21890;SDS011;11110;52.386;16.940;2023-02-22T06:56:10;121.70;;;65.57;;
21890;SDS011;11110;52.386;16.940;2023-02-22T06:58:39;124.83;;;66.23;;
21890;SDS011;11110;52.386;16.940;2023-02-22T07:01:07;126.30;;;69.63;;
21890;SDS011;11110;52.386;16.940;2023-02-22T07:03:36;124.50;;;69.37;;
21890;SDS011;11110;52.386;16.940;2023-02-22T07:06:06;120.33;;;66.90;;
21890;SDS011;11110;52.386;16.940;2023-02-22T07:08:36;118.50;;;64.83;;
21890;SDS011;11110;52.386;16.940;2023-02-22T07:11:06;124.97;;;67.90;;
21890;SDS011;11110;52.386;16.940;2023-02-22T07:13:35;117.47;;;65.63;;
21890;SDS011;11110;52.386;16.940;2023-02-22T07:16:04;117.63;;;64.33;;
21890;SDS011;11110;52.386;16.940;2023-02-22T07:18:33;115.47;;;63.10;;
21890;SDS011;11110;52.386;16.940;2023-02-22T07:21:01;119.97;;;65.13;;
21890;SDS011;11110;52.386;16.940;2023-02-22T07:23:30;119.00;;;66.90;;
21890;SDS011;11110;52.386;16.940;2023-02-22T07:25:59;110.97;;;64.77;;
21890;SDS011;11110;52.386;16.940;2023-02-22T07:28:29;111.83;;;64.77;;
21890;SDS011;11110;52.386;16.940;2023-02-22T07:30:58;119.30;;;66.17;;
21890;SDS011;11110;52.386;16.940;2023-02-22T07:33:27;103.63;;;64.13;;
21890;SDS011;11110;52.386;16.940;2023-02-22T07:35:55;108.57;;;63.83;;
21890;SDS011;11110;52.386;16.940;2023-02-22T07:38:24;111.23;;;63.83;;
21890;SDS011;11110;52.386;16.940;2023-02-22T07:40:54;105.00;;;62.73;;
21890;SDS011;11110;52.386;16.940;2023-02-22T07:43:24;97.60;;;63.33;;
21890;SDS011;11110;52.386;16.940;2023-02-22T07:45:59;111.37;;;65.17;;
21890;SDS011;11110;52.386;16.940;2023-02-22T07:48:29;106.93;;;65.00;;
21890;SDS011;11110;52.386;16.940;2023-02-22T07:50:58;101.77;;;63.43;;
21890;SDS011;11110;52.386;16.940;2023-02-22T07:53:28;104.03;;;65.57;;
21890;SDS011;11110;52.386;16.940;2023-02-22T07:55:59;106.63;;;66.53;;
21890;SDS011;11110;52.386;16.940;2023-02-22T07:58:29;104.97;;;64.80;;
21890;SDS011;11110;52.386;16.940;2023-02-22T08:01:00;104.07;;;64.73;;
21890;SDS011;11110;52.386;16.940;2023-02-22T08:03:30;112.33;;;67.33;;
21890;SDS011;11110;52.386;16.940;2023-02-22T08:06:02;108.07;;;66.47;;
21890;SDS011;11110;52.386;16.940;2023-02-22T08:08:33;105.37;;;64.10;;
21890;SDS011;11110;52.386;16.940;2023-02-22T08:11:02;101.87;;;66.03;;
21890;SDS011;11110;52.386;16.940;2023-02-22T08:13:31;101.13;;;64.90;;
21890;SDS011;11110;52.386;16.940;2023-02-22T08:16:01;102.30;;;65.60;;
21890;SDS011;11110;52.386;16.940;2023-02-22T08:18:30;98.77;;;65.20;;
21890;SDS011;11110;52.386;16.940;2023-02-22T08:20:59;100.13;;;63.77;;
21890;SDS011;11110;52.386;16.940;2023-02-22T08:23:28;96.20;;;62.07;;
21890;SDS011;11110;52.386;16.940;2023-02-22T08:26:02;100.37;;;64.27;;
21890;SDS011;11110;52.386;16.940;2023-02-22T08:28:31;101.87;;;64.17;;
21890;SDS011;11110;52.386;16.940;2023-02-22T08:31:01;97.50;;;65.23;;
21890;SDS011;11110;52.386;16.940;2023-02-22T08:33:33;102.07;;;63.63;;
21890;SDS011;11110;52.386;16.940;2023-02-22T08:36:02;101.93;;;64.60;;
21890;SDS011;11110;52.386;16.940;2023-02-22T08:38:31;101.00;;;64.97;;
21890;SDS011;11110;52.386;16.940;2023-02-22T08:41:00;100.93;;;64.23;;
21890;SDS011;11110;52.386;16.940;2023-02-22T08:43:29;96.83;;;64.10;;
21890;SDS011;11110;52.386;16.940;2023-02-22T08:45:57;99.43;;;66.13;;
21890;SDS011;11110;52.386;16.940;2023-02-22T08:48:28;102.50;;;66.30;;
21890;SDS011;11110;52.386;16.940;2023-02-22T08:50:56;102.13;;;66.40;;
21890;SDS011;11110;52.386;16.940;2023-02-22T08:53:25;95.87;;;66.57;;
21890;SDS011;11110;52.386;16.940;2023-02-22T08:55:53;93.27;;;65.80;;
21890;SDS011;11110;52.386;16.940;2023-02-22T08:58:22;91.03;;;65.50;;
21890;SDS011;11110;52.386;16.940;2023-02-22T09:00:51;104.57;;;68.37;;
21890;SDS011;11110;52.386;16.940;2023-02-22T09:03:19;99.57;;;67.47;;
21890;SDS011;11110;52.386;16.940;2023-02-22T09:05:49;105.20;;;69.23;;
21890;SDS011;11110;52.386;16.940;2023-02-22T09:08:18;101.60;;;68.33;;
21890;SDS011;11110;52.386;16.940;2023-02-22T09:10:48;96.40;;;66.07;;
21890;SDS011;11110;52.386;16.940;2023-02-22T09:13:17;100.83;;;67.40;;
21890;SDS011;11110;52.386;16.940;2023-02-22T09:15:46;105.20;;;68.47;;
21890;SDS011;11110;52.386;16.940;2023-02-22T09:18:14;99.57;;;66.77;;
21890;SDS011;11110;52.386;16.940;2023-02-22T09:20:43;94.83;;;64.13;;
21890;SDS011;11110;52.386;16.940;2023-02-22T09:23:13;98.57;;;65.87;;
21890;SDS011;11110;52.386;16.940;2023-02-22T09:25:42;87.87;;;63.83;;
21890;SDS011;11110;52.386;16.940;2023-02-22T09:28:11;89.63;;;61.50;;
21890;SDS011;11110;52.386;16.940;2023-02-22T09:30:40;85.40;;;62.87;;
21890;SDS011;11110;52.386;16.940;2023-02-22T09:33:09;74.43;;;60.43;;
21890;SDS011;11110;52.386;16.940;2023-02-22T09:35:40;78.93;;;60.27;;
21890;SDS011;11110;52.386;16.940;2023-02-22T09:38:14;83.97;;;62.57;;
21890;SDS011;11110;52.386;16.940;2023-02-22T09:40:46;76.37;;;62.50;;
21890;SDS011;11110;52.386;16.940;2023-02-22T09:43:20;98.83;;;67.17;;
21890;SDS011;11110;52.386;16.940;2023-02-22T09:46:06;92.17;;;63.03;;
21890;SDS011;11110;52.386;16.940;2023-02-22T09:48:52;82.30;;;60.33;;
21890;SDS011;11110;52.386;16.940;2023-02-22T09:51:25;85.23;;;60.10;;
21890;SDS011;11110;52.386;16.940;2023-02-22T09:54:03;83.93;;;60.77;;
21890;SDS011;11110;52.386;16.940;2023-02-22T09:56:40;77.90;;;61.63;;
21890;SDS011;11110;52.386;16.940;2023-02-22T09:59:14;83.27;;;59.67;;
21890;SDS011;11110;52.386;16.940;2023-02-22T10:01:48;86.20;;;60.00;;
21890;SDS011;11110;52.386;16.940;2023-02-22T10:04:27;84.87;;;60.40;;
21890;SDS011;11110;52.386;16.940;2023-02-22T10:07:14;85.10;;;58.93;;
21890;SDS011;11110;52.386;16.940;2023-02-22T10:09:53;81.40;;;58.43;;
21890;SDS011;11110;52.386;16.940;2023-02-22T10:12:27;86.53;;;59.20;;
21890;SDS011;11110;52.386;16.940;2023-02-22T10:15:06;88.83;;;60.67;;
21890;SDS011;11110;52.386;16.940;2023-02-22T10:17:57;81.00;;;57.80;;
21890;SDS011;11110;52.386;16.940;2023-02-22T10:20:43;75.93;;;57.17;;
21890;SDS011;11110;52.386;16.940;2023-02-22T10:23:21;70.20;;;58.30;;
21890;SDS011;11110;52.386;16.940;2023-02-22T10:26:01;78.43;;;60.57;;
21890;SDS011;11110;52.386;16.940;2023-02-22T10:28:36;78.17;;;61.20;;
21890;SDS011;11110;52.386;16.940;2023-02-22T10:31:11;79.43;;;60.10;;
21890;SDS011;11110;52.386;16.940;2023-02-22T10:33:50;84.00;;;61.83;;
21890;SDS011;11110;52.386;16.940;2023-02-22T10:36:23;75.07;;;59.23;;
21890;SDS011;11110;52.386;16.940;2023-02-22T10:38:54;70.73;;;57.80;;
21890;SDS011;11110;52.386;16.940;2023-02-22T10:41:28;67.60;;;57.17;;
21890;SDS011;11110;52.386;16.940;2023-02-22T10:43:58;64.17;;;56.43;;
21890;SDS011;11110;52.386;16.940;2023-02-22T10:46:29;75.17;;;61.80;;
21890;SDS011;11110;52.386;16.940;2023-02-22T10:49:00;73.00;;;62.20;;
21890;SDS011;11110;52.386;16.940;2023-02-22T10:51:33;67.90;;;59.13;;
21890;SDS011;11110;52.386;16.940;2023-02-22T10:54:09;85.07;;;61.87;;
21890;SDS011;11110;52.386;16.940;2023-02-22T10:56:54;65.17;;;58.03;;
21890;SDS011;11110;52.386;16.940;2023-02-22T10:59:27;63.30;;;56.20;;
21890;SDS011;11110;52.386;16.940;2023-02-22T11:02:00;63.90;;;56.97;;
21890;SDS011;11110;52.386;16.940;2023-02-22T11:04:44;65.77;;;55.97;;
21890;SDS011;11110;52.386;16.940;2023-02-22T11:07:17;62.13;;;55.33;;
21890;SDS011;11110;52.386;16.940;2023-02-22T11:09:50;64.20;;;56.47;;
21890;SDS011;11110;52.386;16.940;2023-02-22T11:12:30;66.70;;;57.50;;
21890;SDS011;11110;52.386;16.940;2023-02-22T11:17:53;64.67;;;56.13;;
21890;SDS011;11110;52.386;16.940;2023-02-22T11:20:27;68.23;;;55.97;;
21890;SDS011;11110;52.386;16.940;2023-02-22T11:23:01;58.60;;;52.37;;
21890;SDS011;11110;52.386;16.940;2023-02-22T11:25:32;59.17;;;52.80;;
21890;SDS011;11110;52.386;16.940;2023-02-22T11:28:08;56.73;;;50.70;;
21890;SDS011;11110;52.386;16.940;2023-02-22T11:30:40;56.83;;;50.77;;
21890;SDS011;11110;52.386;16.940;2023-02-22T11:36:28;55.20;;;48.77;;
21890;SDS011;11110;52.386;16.940;2023-02-22T11:38:59;58.07;;;51.63;;
21890;SDS011;11110;52.386;16.940;2023-02-22T11:41:34;62.70;;;54.87;;
21890;SDS011;11110;52.386;16.940;2023-02-22T11:44:19;128.77;;;68.90;;
21890;SDS011;11110;52.386;16.940;2023-02-22T11:46:51;117.03;;;68.30;;
21890;SDS011;11110;52.386;16.940;2023-02-22T11:49:22;106.43;;;65.80;;
21890;SDS011;11110;52.386;16.940;2023-02-22T11:52:03;110.93;;;68.90;;
21890;SDS011;11110;52.386;16.940;2023-02-22T11:54:46;103.17;;;66.50;;
21890;SDS011;11110;52.386;16.940;2023-02-22T11:58:12;106.90;;;68.47;;
21890;SDS011;11110;52.386;16.940;2023-02-22T12:00:59;99.33;;;68.27;;
21890;SDS011;11110;52.386;16.940;2023-02-22T12:03:37;95.63;;;65.33;;
21890;SDS011;11110;52.386;16.940;2023-02-22T12:06:22;104.57;;;68.53;;
21890;SDS011;11110;52.386;16.940;2023-02-22T12:09:04;38.00;;;34.10;;
21890;SDS011;11110;52.386;16.940;2023-02-22T12:11:42;109.03;;;65.40;;
21890;SDS011;11110;52.386;16.940;2023-02-22T12:14:20;106.03;;;66.87;;
21890;SDS011;11110;52.386;16.940;2023-02-22T12:17:04;108.43;;;65.73;;
21890;SDS011;11110;52.386;16.940;2023-02-22T12:19:46;107.73;;;67.67;;
21890;SDS011;11110;52.386;16.940;2023-02-22T12:22:18;110.17;;;67.03;;
21890;SDS011;11110;52.386;16.940;2023-02-22T12:24:53;105.50;;;67.63;;
21890;SDS011;11110;52.386;16.940;2023-02-22T12:27:37;110.70;;;68.83;;
21890;SDS011;11110;52.386;16.940;2023-02-22T12:30:10;113.03;;;70.27;;
21890;SDS011;11110;52.386;16.940;2023-02-22T12:32:47;112.93;;;69.60;;
21890;SDS011;11110;52.386;16.940;2023-02-22T12:35:19;113.83;;;69.20;;
21890;SDS011;11110;52.386;16.940;2023-02-22T12:37:55;105.33;;;67.60;;
21890;SDS011;11110;52.386;16.940;2023-02-22T12:40:32;103.93;;;68.30;;
21890;SDS011;11110;52.386;16.940;2023-02-22T12:43:07;114.47;;;75.50;;
21890;SDS011;11110;52.386;16.940;2023-02-22T12:45:44;114.47;;;71.63;;
21890;SDS011;11110;52.386;16.940;2023-02-22T12:48:23;104.43;;;69.77;;
21890;SDS011;11110;52.386;16.940;2023-02-22T12:50:58;110.10;;;68.40;;
21890;SDS011;11110;52.386;16.940;2023-02-22T12:53:48;111.57;;;70.37;;
21890;SDS011;11110;52.386;16.940;2023-02-22T12:56:27;116.17;;;72.33;;
21890;SDS011;11110;52.386;16.940;2023-02-22T12:59:02;112.37;;;72.47;;
21890;SDS011;11110;52.386;16.940;2023-02-22T13:01:39;118.30;;;69.00;;
21890;SDS011;11110;52.386;16.940;2023-02-22T13:04:12;114.40;;;72.63;;
21890;SDS011;11110;52.386;16.940;2023-02-22T13:06:53;116.47;;;72.23;;
21890;SDS011;11110;52.386;16.940;2023-02-22T13:09:49;121.17;;;73.53;;
21890;SDS011;11110;52.386;16.940;2023-02-22T13:12:39;101.33;;;67.43;;
21890;SDS011;11110;52.386;16.940;2023-02-22T13:15:19;105.57;;;67.57;;
21890;SDS011;11110;52.386;16.940;2023-02-22T13:17:54;104.83;;;67.27;;
21890;SDS011;11110;52.386;16.940;2023-02-22T13:20:32;102.23;;;66.03;;
21890;SDS011;11110;52.386;16.940;2023-02-22T13:23:05;101.27;;;64.47;;
21890;SDS011;11110;52.386;16.940;2023-02-22T13:25:42;111.63;;;66.33;;
21890;SDS011;11110;52.386;16.940;2023-02-22T13:28:18;103.83;;;64.63;;
21890;SDS011;11110;52.386;16.940;2023-02-22T13:31:11;106.50;;;66.73;;
21890;SDS011;11110;52.386;16.940;2023-02-22T13:34:08;96.40;;;63.53;;
21890;SDS011;11110;52.386;16.940;2023-02-22T13:36:56;101.83;;;64.63;;
21890;SDS011;11110;52.386;16.940;2023-02-22T13:42:39;97.80;;;65.13;;
21890;SDS011;11110;52.386;16.940;2023-02-22T13:45:28;96.97;;;64.77;;
21890;SDS011;11110;52.386;16.940;2023-02-22T13:51:42;99.70;;;67.17;;
21890;SDS011;11110;52.386;16.940;2023-02-22T13:54:17;101.73;;;65.73;;
21890;SDS011;11110;52.386;16.940;2023-02-22T13:56:51;106.37;;;67.03;;
21890;SDS011;11110;52.386;16.940;2023-02-22T13:59:24;100.80;;;66.23;;
21890;SDS011;11110;52.386;16.940;2023-02-22T14:01:55;97.63;;;66.10;;
21890;SDS011;11110;52.386;16.940;2023-02-22T14:13:16;103.70;;;65.37;;
21890;SDS011;11110;52.386;16.940;2023-02-22T14:18:47;107.00;;;64.10;;
21890;SDS011;11110;52.386;16.940;2023-02-22T14:21:18;105.90;;;63.00;;
21890;SDS011;11110;52.386;16.940;2023-02-22T14:23:48;108.10;;;64.17;;
21890;SDS011;11110;52.386;16.940;2023-02-22T14:26:22;104.03;;;63.00;;
21890;SDS011;11110;52.386;16.940;2023-02-22T14:28:54;106.43;;;63.97;;
21890;SDS011;11110;52.386;16.940;2023-02-22T14:31:27;111.30;;;63.90;;
21890;SDS011;11110;52.386;16.940;2023-02-22T14:34:08;109.27;;;65.13;;
21890;SDS011;11110;52.386;16.940;2023-02-22T14:36:40;102.20;;;64.63;;
21890;SDS011;11110;52.386;16.940;2023-02-22T14:39:16;99.03;;;63.00;;
21890;SDS011;11110;52.386;16.940;2023-02-22T14:42:01;98.33;;;64.03;;
21890;SDS011;11110;52.386;16.940;2023-02-22T14:44:33;101.63;;;66.40;;
21890;SDS011;11110;52.386;16.940;2023-02-22T14:47:08;106.03;;;67.00;;
21890;SDS011;11110;52.386;16.940;2023-02-22T14:49:46;96.47;;;65.53;;
21890;SDS011;11110;52.386;16.940;2023-02-22T14:52:19;97.50;;;65.17;;
21890;SDS011;11110;52.386;16.940;2023-02-22T14:54:54;97.77;;;65.33;;
21890;SDS011;11110;52.386;16.940;2023-02-22T14:57:33;94.93;;;64.07;;
21890;SDS011;11110;52.386;16.940;2023-02-22T15:00:13;100.90;;;65.10;;
21890;SDS011;11110;52.386;16.940;2023-02-22T15:02:49;95.80;;;64.67;;
21890;SDS011;11110;52.386;16.940;2023-02-22T15:05:23;109.53;;;66.23;;
21890;SDS011;11110;52.386;16.940;2023-02-22T15:07:57;98.87;;;65.60;;
21890;SDS011;11110;52.386;16.940;2023-02-22T15:10:28;100.20;;;68.20;;